Time;durP1;ratioP1;P1;durP2;ratioP2;P2;SDS_P1;SDS_P2;PMS_P1;PMS_P2;Temp;Humidity;BMP_temperature;BMP_pressure;BME280_temperature;BME280_humidity;BME280_pressure;Samples;Min_cycle;Max_cycle;Signal;HPM_P1;HPM_P2
2022/10/31 00:01:21;;;;;;;16.35;7.72;;;;;;;16.45;63.50;100217.66;4443519;32;34044;-64
2022/10/31 00:03:49;;;;;;;18.42;10.45;;;;;;;16.50;63.50;100213.56;4446184;32;33167;-62
2022/10/31 00:06:18;;;;;;;15.90;12.05;;;;;;;16.57;63.50;100218.41;4442034;32;33364;-61
2022/10/31 00:08:46;;;;;;;15.80;8.95;;;;;;;16.60;63.49;100220.81;4447107;32;34196;-62
2022/10/31 00:11:14;;;;;;;11.32;6.00;;;;;;;16.65;63.44;100223.94;4442548;32;33869;-63
2022/10/31 00:13:42;;;;;;;13.05;8.18;;;;;;;16.71;63.59;100229.63;4450077;32;32589;-65
2022/10/31 00:16:16;;;;;;;12.80;8.20;;;;;;;16.73;63.79;100222.22;4442902;32;33847;-64
2022/10/31 00:18:48;;;;;;;13.23;8.02;;;;;;;16.71;63.65;100224.22;4438199;32;34409;-63
2022/10/31 00:21:16;;;;;;;15.00;8.75;;;;;;;16.70;63.68;100221.66;4430168;32;35362;-62
2022/10/31 00:23:43;;;;;;;10.43;6.15;;;;;;;16.39;64.38;100219.06;4429571;32;33475;-64
2022/10/31 00:26:11;;;;;;;12.80;6.70;;;;;;;16.26;64.54;100221.19;4446430;32;32758;-63
2022/10/31 00:28:39;;;;;;;11.98;6.32;;;;;;;16.33;64.29;100218.78;4447056;32;33830;-63
2022/10/31 00:31:08;;;;;;;8.82;5.05;;;;;;;15.90;65.32;100211.88;4441019;32;34116;-63
2022/10/31 00:33:38;;;;;;;12.70;5.97;;;;;;;16.23;64.15;100213.37;4440399;32;32379;-65
2022/10/31 00:36:06;;;;;;;11.02;6.43;;;;;;;16.33;63.95;100208.81;4439251;32;33026;-61
2022/10/31 00:38:34;;;;;;;10.85;6.07;;;;;;;16.41;63.71;100206.28;4444256;32;34008;-70
2022/10/31 00:41:02;;;;;;;6.05;4.60;;;;;;;16.50;63.12;100199.16;4444452;32;139742;-65
2022/10/31 00:43:29;;;;;;;6.60;4.50;;;;;;;16.53;63.11;100198.88;4449504;32;32332;-62
2022/10/31 00:45:57;;;;;;;16.77;6.10;;;;;;;16.56;63.31;100205.84;4447303;32;33440;-62
2022/10/31 00:48:24;;;;;;;14.75;6.82;;;;;;;16.62;63.14;100198.03;4440259;32;33918;-63
2022/10/31 00:50:52;;;;;;;6.57;4.90;;;;;;;16.69;63.04;100193.78;4443768;32;33886;-64
2022/10/31 00:53:20;;;;;;;10.02;6.62;;;;;;;16.70;63.08;100189.22;4445006;32;33788;-62
2022/10/31 00:55:48;;;;;;;7.57;5.20;;;;;;;16.29;64.18;100191.22;4444834;32;34084;-63
2022/10/31 00:58:15;;;;;;;11.00;6.35;;;;;;;16.40;63.94;100193.75;4438911;32;34900;-64
2022/10/31 01:00:43;;;;;;;9.15;5.70;;;;;;;16.52;63.29;100189.94;4443697;32;33761;-63
2022/10/31 01:03:17;;;;;;;8.30;5.78;;;;;;;16.60;62.97;100189.25;4448536;32;33392;-63
2022/10/31 01:05:44;;;;;;;9.63;5.65;;;;;;;16.62;63.05;100192.63;4438265;32;32801;-63
2022/10/31 01:08:12;;;;;;;8.00;5.55;;;;;;;16.72;62.65;100198.88;4446828;32;33453;-66
2022/10/31 01:10:40;;;;;;;10.20;7.03;;;;;;;16.75;62.78;100193.22;4445538;32;33927;-63
2022/10/31 01:13:08;;;;;;;12.15;6.47;;;;;;;16.73;62.48;100186.25;4444081;32;33408;-62
2022/10/31 01:15:35;;;;;;;10.95;7.57;;;;;;;16.73;62.38;100187.09;4447079;32;33896;-63
2022/10/31 01:18:06;;;;;;;8.70;6.82;;;;;;;16.60;62.65;100193.78;4448243;32;34013;-65
2022/10/31 01:20:34;;;;;;;15.93;7.15;;;;;;;16.52;62.89;100195.34;4438612;32;33819;-65
2022/10/31 01:23:01;;;;;;;14.40;7.43;;;;;;;16.52;63.12;100192.63;4433404;32;33414;-63
2022/10/31 01:25:29;;;;;;;10.10;5.68;;;;;;;16.60;62.71;100185.69;4448506;32;32743;-62
2022/10/31 01:27:56;;;;;;;11.20;5.15;;;;;;;16.61;62.73;100188.22;4438912;32;35852;-63
2022/10/31 01:30:24;;;;;;;9.77;6.03;;;;;;;16.71;62.48;100190.94;4446295;32;34479;-62
2022/10/31 01:32:52;;;;;;;6.72;4.45;;;;;;;16.70;62.51;100190.09;4438176;32;33561;-63
2022/10/31 01:35:20;;;;;;;17.65;9.05;;;;;;;16.75;62.17;100185.13;4443460;32;33475;-63
2022/10/31 01:37:47;;;;;;;13.62;9.27;;;;;;;16.74;62.11;100180.69;4434948;32;33932;-63
2022/10/31 01:40:15;;;;;;;15.60;7.87;;;;;;;16.71;62.34;100177.41;4446937;32;34212;-62
2022/10/31 01:42:42;;;;;;;12.68;7.28;;;;;;;16.60;62.63;100178.44;4441844;32;33732;-63
2022/10/31 01:45:10;;;;;;;13.00;6.72;;;;;;;16.51;62.62;100177.44;4450945;32;33882;-63
2022/10/31 01:47:42;;;;;;;11.90;6.50;;;;;;;16.59;62.45;100183.97;4448564;32;33865;-64
2022/10/31 01:50:14;;;;;;;15.13;7.00;;;;;;;16.59;62.46;100176.69;4445332;32;33974;-63
2022/10/31 01:52:46;;;;;;;10.82;5.87;;;;;;;16.54;62.88;100182.53;4439966;32;32053;-64
2022/10/31 01:55:32;;;;;;;14.30;8.40;;;;;;;16.46;63.33;100182.38;4447072;32;33888;-62
2022/10/31 01:58:10;;;;;;;7.35;4.70;;;;;;;16.51;63.21;100181.97;4442916;32;34054;-62
2022/10/31 02:00:39;;;;;;;14.15;8.40;;;;;;;16.64;62.79;100173.59;4440216;32;32800;-62
2022/10/31 02:03:07;;;;;;;13.13;6.80;;;;;;;16.52;63.27;100176.41;4442509;32;33429;-63
2022/10/31 02:05:35;;;;;;;12.57;6.20;;;;;;;16.36;63.75;100176.13;4442265;32;31973;-63
2022/10/31 02:08:07;;;;;;;8.32;5.05;;;;;;;16.39;63.72;100177.72;4444020;32;34073;-63
2022/10/31 02:10:36;;;;;;;15.68;4.65;;;;;;;16.44;63.31;100173.59;4445651;32;32791;-64
2022/10/31 02:13:06;;;;;;;8.88;5.57;;;;;;;16.51;63.01;100172.03;4447611;32;32620;-63
2022/10/31 02:15:37;;;;;;;9.40;4.93;;;;;;;16.50;63.31;100170.31;4435246;32;32327;-63
2022/10/31 02:18:05;;;;;;;7.85;4.95;;;;;;;16.56;63.39;100166.19;4442306;32;35318;-63
2022/10/31 02:20:42;;;;;;;7.87;5.22;;;;;;;16.55;63.36;100164.47;4447076;32;32426;-63
2022/10/31 02:23:25;;;;;;;13.77;7.90;;;;;;;16.46;63.45;100151.81;4446842;32;33881;-63
2022/10/31 02:26:19;;;;;;;10.40;5.53;;;;;;;16.29;63.91;100156.94;4445455;32;32365;-63
2022/10/31 02:29:16;;;;;;;15.05;7.05;;;;;;;16.25;64.21;100168.19;4444619;32;33660;-62
2022/10/31 02:32:00;;;;;;;7.72;4.68;;;;;;;16.42;63.54;100167.47;4448658;32;34317;-62
2022/10/31 02:34:38;;;;;;;12.02;4.47;;;;;;;16.28;63.89;100176.00;4448093;32;34218;-62
2022/10/31 02:37:08;;;;;;;14.10;4.87;;;;;;;16.37;63.07;100169.75;4444299;32;33833;-62
2022/10/31 02:39:51;;;;;;;7.55;4.62;;;;;;;16.16;63.85;100171.72;4449496;32;34221;-61
2022/10/31 02:42:34;;;;;;;10.85;5.50;;;;;;;15.86;64.70;100168.12;4432280;32;33578;-62
2022/10/31 02:45:08;;;;;;;8.60;5.37;;;;;;;15.76;65.20;100173.50;4426108;32;33632;-63
2022/10/31 02:47:38;;;;;;;11.40;5.03;;;;;;;16.08;64.15;100172.41;4433410;32;34117;-61
2022/10/31 02:50:11;;;;;;;12.93;6.12;;;;;;;16.21;63.74;100177.53;4449644;32;33270;-62
2022/10/31 02:52:38;;;;;;;9.80;4.75;;;;;;;16.35;63.21;100179.84;4431639;32;34084;-64
2022/10/31 02:55:29;;;;;;;8.80;6.37;;;;;;;16.42;62.94;100186.37;4446541;32;33302;-62
2022/10/31 02:58:01;;;;;;;9.60;5.68;;;;;;;16.44;63.11;100178.16;4420269;32;33953;-62
2022/10/31 03:00:37;;;;;;;8.50;4.43;;;;;;;16.49;62.94;100176.69;4432335;32;35259;-62
2022/10/31 03:03:25;;;;;;;;;;;;;;;16.39;63.45;100175.84;4443573;32;34180;-64
2022/10/31 03:06:02;;;;;;;8.07;4.22;;;;;;;16.50;63.08;100180.25;4447871;32;33694;-62
2022/10/31 03:08:43;;;;;;;7.15;3.22;;;;;;;16.44;63.06;100179.00;4446983;32;33916;-62
2022/10/31 03:11:11;;;;;;;9.98;4.80;;;;;;;16.41;62.97;100173.03;4440466;32;32792;-62
2022/10/31 03:13:47;;;;;;;9.68;4.80;;;;;;;16.15;63.38;100167.31;4447353;32;35811;-64
2022/10/31 03:16:24;;;;;;;5.85;3.30;;;;;;;15.83;64.24;100182.75;4444128;32;34606;-64
2022/10/31 03:18:57;;;;;;;9.00;4.62;;;;;;;15.91;64.00;100170.38;4437063;32;33867;-62
2022/10/31 03:21:51;;;;;;;5.15;3.75;;;;;;;16.11;63.37;100182.06;4443099;32;33974;-61
2022/10/31 03:24:22;;;;;;;10.75;5.47;;;;;;;16.24;62.99;100191.62;4441591;32;35254;-64
2022/10/31 03:26:53;;;;;;;7.93;3.72;;;;;;;16.27;62.86;100195.88;4448358;32;33714;-62
2022/10/31 03:29:23;;;;;;;10.77;5.32;;;;;;;16.30;62.83;100193.75;4437865;32;34930;-61
2022/10/31 03:32:19;;;;;;;6.35;3.92;;;;;;;16.27;62.81;100187.78;4442019;32;35310;-61
2022/10/31 03:34:48;;;;;;;8.48;5.35;;;;;;;16.31;62.66;100189.22;4434367;32;34033;-62
2022/10/31 03:37:18;;;;;;;8.55;4.65;;;;;;;16.30;62.81;100187.50;4443382;32;33416;-65
2022/10/31 03:39:46;;;;;;;6.82;4.87;;;;;;;16.26;62.80;100196.87;4444907;32;33888;-62
2022/10/31 03:42:16;;;;;;;9.65;5.47;;;;;;;16.32;62.51;100196.31;4434731;32;34900;-64
2022/10/31 03:44:51;;;;;;;10.13;4.18;;;;;;;16.21;62.79;100191.03;4453213;32;34148;-61
2022/10/31 03:47:18;;;;;;;11.00;4.95;;;;;;;16.29;62.65;100188.50;4436917;32;34604;-65
2022/10/31 03:49:47;;;;;;;9.65;6.12;;;;;;;16.35;62.36;100192.50;4441131;32;32323;-61
2022/10/31 03:52:35;;;;;;;10.98;4.95;;;;;;;16.36;62.50;100191.50;4446309;32;35253;-61
2022/10/31 03:55:10;;;;;;;8.88;5.00;;;;;;;16.37;62.67;100194.06;4446827;32;32643;-64
2022/10/31 03:57:43;;;;;;;;;;;;;;;16.39;62.76;100197.47;4444560;32;34500;-63
2022/10/31 04:00:13;;;;;;;9.88;5.35;;;;;;;16.46;62.56;100197.75;4435627;32;34315;-65
2022/10/31 04:03:06;;;;;;;8.07;4.95;;;;;;;16.47;62.46;100204.88;4432308;32;33882;-61
2022/10/31 04:05:34;;;;;;;11.27;5.68;;;;;;;16.46;62.28;100203.16;4434688;32;33980;-62
2022/10/31 04:08:09;;;;;;;10.85;5.32;;;;;;;16.38;62.56;100198.47;4449889;32;34391;-61
2022/10/31 04:10:37;;;;;;;;;;;;;;;16.47;62.12;100205.72;4445319;32;33788;-63
2022/10/31 04:13:11;;;;;;;10.88;5.00;;;;;;;16.49;61.97;100202.87;4446502;32;35369;-61
2022/10/31 04:15:41;;;;;;;7.50;4.30;;;;;;;16.44;62.03;100208.72;4447425;32;33681;-62
2022/10/31 04:18:08;;;;;;;7.55;4.37;;;;;;;16.45;62.15;100198.75;4443121;32;33355;-61
2022/10/31 04:20:39;;;;;;;14.10;6.43;;;;;;;16.48;62.31;100202.03;4441664;32;34904;-61
2022/10/31 04:23:18;;;;;;;19.80;12.85;;;;;;;16.43;62.50;100207.00;4445648;32;33843;-61
2022/10/31 04:25:45;;;;;;;9.30;5.85;;;;;;;16.37;62.76;100207.56;4447186;32;34910;-63
2022/10/31 04:28:13;;;;;;;10.68;5.78;;;;;;;16.43;62.31;100206.13;4445078;32;34420;-61
2022/10/31 04:30:42;;;;;;;9.88;7.55;;;;;;;16.48;62.06;100209.28;4439148;32;35043;-60
2022/10/31 04:33:10;;;;;;;10.02;6.50;;;;;;;16.38;62.22;100216.53;4445536;32;33933;-62
2022/10/31 04:35:38;;;;;;;12.43;5.00;;;;;;;16.43;62.08;100216.94;4439544;32;35795;-61
2022/10/31 04:38:06;;;;;;;6.93;4.65;;;;;;;16.49;61.75;100213.69;4442084;32;32348;-61
2022/10/31 04:40:33;;;;;;;5.68;4.22;;;;;;;16.46;61.76;100220.22;4446715;32;33800;-60
2022/10/31 04:43:03;;;;;;;9.90;4.03;;;;;;;16.49;61.70;100224.50;4442082;32;35222;-62
2022/10/31 04:45:31;;;;;;;7.28;5.05;;;;;;;16.40;62.17;100236.13;4448548;32;34209;-61
2022/10/31 04:47:59;;;;;;;6.57;3.75;;;;;;;16.42;61.94;100229.59;4440052;32;33510;-64
2022/10/31 04:50:32;;;;;;;19.58;10.43;;;;;;;16.39;61.75;100232.59;4450228;32;32096;-62
2022/10/31 04:52:59;;;;;;;40.40;21.92;;;;;;;16.41;61.70;100232.47;4439747;32;32423;-62
2022/10/31 04:55:27;;;;;;;22.40;12.85;;;;;;;16.36;61.88;100230.16;4444999;32;33956;-62
2022/10/31 04:57:57;;;;;;;37.13;12.90;;;;;;;16.33;62.03;100230.44;4446832;32;33682;-61
2022/10/31 05:00:26;;;;;;;5.68;3.15;;;;;;;16.45;61.72;100234.72;4445719;32;33250;-62
2022/10/31 05:02:56;;;;;;;8.93;5.80;;;;;;;16.41;61.69;100233.31;4441925;32;35408;-62
2022/10/31 05:05:30;;;;;;;5.47;4.45;;;;;;;16.50;61.44;100235.16;4444673;32;34355;-64
2022/10/31 05:07:57;;;;;;;7.68;4.35;;;;;;;16.40;62.14;100231.56;4451787;32;33460;-63
2022/10/31 05:10:28;;;;;;;9.32;3.70;;;;;;;16.45;62.05;100234.72;4445150;32;34074;-62
2022/10/31 05:12:59;;;;;;;6.65;4.93;;;;;;;16.28;62.31;100235.44;4441541;32;35360;-61
2022/10/31 05:15:29;;;;;;;9.25;5.55;;;;;;;16.49;61.77;100235.28;4439761;32;34932;-61
2022/10/31 05:18:01;;;;;;;14.60;7.85;;;;;;;16.57;61.40;100226.50;4445406;32;34407;-64
2022/10/31 05:20:33;;;;;;;9.18;5.70;;;;;;;16.54;61.56;100227.63;4450925;32;33574;-61
2022/10/31 05:23:01;;;;;;;10.02;6.68;;;;;;;16.53;61.46;100218.69;4450577;32;32842;-61
2022/10/31 05:25:29;;;;;;;8.45;5.53;;;;;;;16.54;61.53;100217.69;4452334;32;34024;-63
2022/10/31 05:27:58;;;;;;;9.80;6.57;;;;;;;16.51;61.71;100228.75;4447062;32;34776;-63
2022/10/31 05:30:28;;;;;;;9.90;6.97;;;;;;;16.42;62.03;100228.75;4452346;32;34688;-61
2022/10/31 05:32:57;;;;;;;8.40;4.40;;;;;;;16.27;62.01;100239.94;4449350;32;34034;-61
2022/10/31 05:35:31;;;;;;;8.65;5.57;;;;;;;16.36;62.00;100224.75;4445834;32;35243;-64
2022/10/31 05:37:59;;;;;;;11.18;6.12;;;;;;;16.42;61.81;100234.16;4450784;32;33196;-65
2022/10/31 05:40:28;;;;;;;10.52;3.97;;;;;;;16.39;62.00;100226.34;4450709;32;33960;-62
2022/10/31 05:42:58;;;;;;;4.12;3.08;;;;;;;16.46;61.88;100225.62;4440458;32;32790;-63
2022/10/31 05:45:26;;;;;;;10.95;5.32;;;;;;;16.36;62.30;100232.88;4439663;32;35226;-61
2022/10/31 05:48:00;;;;;;;9.70;5.70;;;;;;;16.09;62.86;100236.22;4448698;32;34454;-61
2022/10/31 05:50:31;;;;;;;9.60;4.18;;;;;;;15.97;63.44;100234.63;4446183;32;32473;-68
2022/10/31 05:53:01;;;;;;;8.88;5.65;;;;;;;16.16;63.28;100240.09;4443461;32;34034;-63
2022/10/31 05:55:29;;;;;;;9.38;3.65;;;;;;;16.22;62.91;100236.81;4452042;32;33698;-61
2022/10/31 05:57:58;;;;;;;17.12;5.65;;;;;;;16.26;62.85;100240.09;4450485;32;34745;-61
2022/10/31 06:00:27;;;;;;;6.65;4.35;;;;;;;16.37;62.42;100248.09;4445743;32;32737;-62
2022/10/31 06:03:01;;;;;;;8.98;5.50;;;;;;;16.36;62.64;100251.78;4446742;32;33965;-61
2022/10/31 06:05:29;;;;;;;12.73;6.05;;;;;;;16.35;62.74;100249.22;4447770;32;35394;-61
2022/10/31 06:07:57;;;;;;;10.52;5.72;;;;;;;16.35;62.84;100241.13;4449885;32;33515;-63
2022/10/31 06:10:26;;;;;;;11.57;6.53;;;;;;;16.38;62.70;100243.53;4445707;32;33979;-61
2022/10/31 06:12:54;;;;;;;16.98;7.00;;;;;;;16.40;62.74;100247.78;4435747;32;33994;-61
2022/10/31 06:15:21;;;;;;;12.48;7.12;;;;;;;16.26;63.12;100249.06;4439386;32;34170;-62
2022/10/31 06:18:05;;;;;;;8.93;5.53;;;;;;;16.13;63.60;100251.16;4442757;32;32380;-61
2022/10/31 06:20:33;;;;;;;10.38;4.93;;;;;;;16.24;63.21;100259.16;4439654;32;33645;-63
2022/10/31 06:23:01;;;;;;;6.75;5.53;;;;;;;16.17;63.66;100244.47;4449687;32;32962;-62
2022/10/31 06:25:30;;;;;;;12.57;7.55;;;;;;;16.21;63.64;100255.84;4448513;32;35299;-62
2022/10/31 06:27:58;;;;;;;7.20;3.80;;;;;;;16.13;63.92;100259.25;4433882;32;32003;-63
2022/10/31 06:30:27;;;;;;;9.68;4.93;;;;;;;16.30;63.40;100255.03;4447685;32;33978;-65
2022/10/31 06:33:01;;;;;;;13.40;7.35;;;;;;;16.05;64.01;100248.28;4439282;32;35066;-61
2022/10/31 06:35:30;;;;;;;11.65;6.62;;;;;;;16.24;63.05;100252.88;4449174;32;33840;-62
2022/10/31 06:37:58;;;;;;;9.70;5.72;;;;;;;16.17;63.50;100257.13;4429217;32;33376;-62
2022/10/31 06:40:26;;;;;;;9.43;6.53;;;;;;;15.98;64.17;100253.38;4446747;32;32524;-61
2022/10/31 06:42:58;;;;;;;15.65;7.32;;;;;;;16.14;63.74;100258.25;4447083;32;34736;-67
2022/10/31 06:45:26;;;;;;;10.23;6.78;;;;;;;16.17;63.94;100255.28;4441413;32;33898;-64
2022/10/31 06:47:56;;;;;;;13.57;7.10;;;;;;;16.33;63.21;100256.59;4442773;32;33349;-64
2022/10/31 06:50:46;;;;;;;17.67;7.35;;;;;;;16.27;63.26;100260.72;4446823;32;32792;-64
2022/10/31 06:53:14;;;;;;;14.23;8.25;;;;;;;16.24;63.42;100269.97;4436523;32;33876;-63
2022/10/31 06:55:42;;;;;;;13.10;7.72;;;;;;;16.24;63.68;100274.50;4447675;32;32566;-62
2022/10/31 06:58:10;;;;;;;9.55;5.72;;;;;;;16.33;63.38;100272.81;4451200;32;33702;-64
2022/10/31 07:00:38;;;;;;;11.30;6.32;;;;;;;16.31;63.28;100281.06;4441369;32;35484;-62
2022/10/31 07:03:10;;;;;;;10.10;6.10;;;;;;;16.40;63.02;100280.22;4442944;32;35129;-63
2022/10/31 07:05:38;;;;;;;11.73;6.40;;;;;;;16.12;63.53;100283.72;4446123;32;32536;-64
2022/10/31 07:08:08;;;;;;;3.47;2.75;;;;;;;16.27;62.67;100282.31;4437359;32;34514;-61
2022/10/31 07:10:37;;;;;;;13.30;6.55;;;;;;;16.28;62.94;100286.75;4441691;32;32957;-63
2022/10/31 07:13:13;;;;;;;10.18;5.00;;;;;;;16.19;63.04;100283.00;4441242;32;34057;-62
2022/10/31 07:15:42;;;;;;;11.90;6.22;;;;;;;16.35;62.07;100284.34;4443610;32;33944;-63
2022/10/31 07:18:11;;;;;;;6.35;5.30;;;;;;;16.34;62.10;100279.91;4450126;32;32320;-63
2022/10/31 07:20:39;;;;;;;14.63;6.57;;;;;;;16.36;61.88;100281.47;4442355;32;33447;-62
2022/10/31 07:23:09;;;;;;;8.20;5.03;;;;;;;16.31;62.51;100297.28;4443194;32;33969;-63
2022/10/31 07:25:38;;;;;;;15.77;7.32;;;;;;;16.32;62.68;100301.69;4446574;32;32550;-63
2022/10/31 07:28:06;;;;;;;11.32;6.22;;;;;;;16.41;62.55;100302.69;4435613;32;35394;-62
2022/10/31 07:30:34;;;;;;;11.95;7.00;;;;;;;16.34;62.85;100297.00;4450842;32;33854;-64
2022/10/31 07:33:02;;;;;;;8.57;4.78;;;;;;;16.44;62.28;100300.56;4426967;32;34018;-63
2022/10/31 07:35:31;;;;;;;7.35;3.65;;;;;;;16.42;62.56;100299.84;4446100;32;33654;-65
2022/10/31 07:38:07;;;;;;;7.15;4.65;;;;;;;16.47;62.24;100305.69;4448287;32;33618;-62
2022/10/31 07:40:35;;;;;;;14.80;4.25;;;;;;;16.43;62.46;100309.66;4447883;32;33328;-62
2022/10/31 07:43:03;;;;;;;9.48;4.93;;;;;;;16.46;62.46;100292.31;4440068;32;34103;-62
2022/10/31 07:45:31;;;;;;;4.97;3.60;;;;;;;16.42;62.84;100302.53;4439704;32;35003;-63
2022/10/31 07:48:03;;;;;;;16.55;7.65;;;;;;;16.41;62.80;100305.41;4442990;32;32504;-62
2022/10/31 07:50:36;;;;;;;8.82;5.32;;;;;;;16.29;63.06;100300.09;4442570;32;33514;-63
2022/10/31 07:53:09;;;;;;;9.45;5.53;;;;;;;16.24;63.29;100304.19;4446035;32;32175;-62
2022/10/31 07:55:38;;;;;;;11.40;6.50;;;;;;;15.55;65.77;100288.69;4449388;32;33588;-63
2022/10/31 07:58:08;;;;;;;5.87;3.72;;;;;;;15.81;64.80;100289.13;4443488;32;34490;-62
2022/10/31 08:00:38;;;;;;;10.27;6.68;;;;;;;15.87;64.45;100288.59;4442536;32;34778;-64
2022/10/31 08:03:09;;;;;;;13.73;7.37;;;;;;;15.76;65.11;100291.34;4424912;32;32555;-60
2022/10/31 08:05:39;;;;;;;11.48;5.87;;;;;;;15.85;65.30;100298.66;4438390;32;32770;-64
2022/10/31 08:08:10;;;;;;;22.65;10.02;;;;;;;16.13;64.40;100304.31;4447911;32;33617;-61
2022/10/31 08:10:38;;;;;;;11.23;7.70;;;;;;;16.26;64.07;100294.13;4450478;32;33924;-63
2022/10/31 08:13:12;;;;;;;12.57;7.15;;;;;;;16.40;63.72;100304.53;4445557;32;32384;-62
2022/10/31 08:15:41;;;;;;;6.57;4.28;;;;;;;16.45;63.46;100296.88;4444597;32;32808;-64
2022/10/31 08:18:12;;;;;;;10.52;4.43;;;;;;;16.53;63.21;100302.44;4443644;32;33645;-62
2022/10/31 08:20:41;;;;;;;14.32;6.57;;;;;;;16.53;63.29;100297.03;4445869;32;33622;-63
2022/10/31 08:23:10;;;;;;;13.93;7.45;;;;;;;16.38;63.80;100302.97;4451187;32;34102;-63
2022/10/31 08:25:38;;;;;;;11.43;6.37;;;;;;;16.33;63.97;100303.38;4447517;32;34223;-62
2022/10/31 08:28:06;;;;;;;10.65;6.00;;;;;;;16.60;63.08;100305.44;4448704;32;33318;-62
2022/10/31 08:30:36;;;;;;;16.17;7.90;;;;;;;16.60;63.04;100308.16;4450345;32;32978;-63
2022/10/31 08:33:11;;;;;;;9.63;5.80;;;;;;;16.49;62.90;100310.94;4448742;32;34108;-63
2022/10/31 08:35:42;;;;;;;11.02;6.55;;;;;;;16.49;63.20;100308.25;4448689;32;33544;-64
2022/10/31 08:38:14;;;;;;;14.80;5.55;;;;;;;16.48;63.32;100303.84;4434564;32;33495;-63
2022/10/31 08:40:42;;;;;;;9.00;6.62;;;;;;;16.63;62.74;100302.47;4451018;32;35131;-65
2022/10/31 08:43:14;;;;;;;15.65;6.03;;;;;;;16.60;62.88;100302.75;4448208;32;32660;-62
2022/10/31 08:45:43;;;;;;;19.55;7.80;;;;;;;16.66;62.58;100301.31;4444770;32;35208;-63
2022/10/31 08:48:15;;;;;;;11.45;5.85;;;;;;;16.65;62.52;100295.03;4451246;32;32369;-63
2022/10/31 08:50:43;;;;;;;13.32;6.20;;;;;;;16.76;61.91;100304.94;4447524;32;32902;-63
2022/10/31 08:53:18;;;;;;;19.00;7.85;;;;;;;16.57;62.46;100307.56;4445515;32;34427;-63
2022/10/31 08:55:47;;;;;;;8.68;5.82;;;;;;;15.97;64.85;100304.81;4448402;32;32875;-64
2022/10/31 08:58:18;;;;;;;10.35;5.25;;;;;;;16.37;63.50;100304.81;4447493;32;33581;-64
2022/10/31 09:00:48;;;;;;;9.52;5.53;;;;;;;16.32;63.39;100304.38;4444720;32;33667;-64
2022/10/31 09:03:22;;;;;;;19.67;7.35;;;;;;;16.43;63.07;100306.09;4445901;32;34439;-64
2022/10/31 09:05:50;;;;;;;15.93;8.50;;;;;;;16.52;63.00;100306.13;4443234;32;33466;-63
2022/10/31 09:08:18;;;;;;;5.00;3.25;;;;;;;16.30;64.33;100309.91;4447208;32;34544;-63
2022/10/31 09:10:46;;;;;;;10.27;6.80;;;;;;;16.38;64.12;100311.09;4436837;32;33679;-64
2022/10/31 09:13:16;;;;;;;9.02;6.07;;;;;;;16.61;63.41;100306.28;4446988;32;35744;-64
2022/10/31 09:15:47;;;;;;;18.20;5.90;;;;;;;16.60;63.43;100316.25;4435874;32;35435;-64
2022/10/31 09:18:18;;;;;;;16.23;8.07;;;;;;;16.64;63.45;100316.81;4447466;32;32790;-64
2022/10/31 09:20:48;;;;;;;10.80;6.68;;;;;;;16.41;63.83;100319.75;4440350;32;34773;-63
2022/10/31 09:23:22;;;;;;;9.50;6.35;;;;;;;16.48;63.74;100314.66;4438432;32;35135;-64
2022/10/31 09:25:52;;;;;;;9.30;5.62;;;;;;;16.72;63.02;100322.37;4442069;32;35055;-63
2022/10/31 09:28:23;;;;;;;13.20;7.90;;;;;;;16.65;63.33;100316.66;4442130;32;32746;-61
2022/10/31 09:30:53;;;;;;;14.10;5.78;;;;;;;16.70;63.24;100316.25;4441714;32;33877;-61
2022/10/31 09:33:21;;;;;;;9.50;5.20;;;;;;;16.60;63.20;100312.69;4434704;32;33945;-63
2022/10/31 09:35:50;;;;;;;5.78;3.62;;;;;;;16.71;62.91;100320.66;4438597;32;33996;-62
2022/10/31 09:38:20;;;;;;;9.77;5.82;;;;;;;16.81;62.60;100313.44;4450123;32;33466;-62
2022/10/31 09:41:15;;;;;;;15.75;6.95;;;;;;;16.74;63.13;100323.09;4436724;32;33735;-62
2022/10/31 09:43:54;;;;;;;13.20;5.28;;;;;;;16.67;63.24;100321.94;4439635;32;33764;-62
2022/10/31 09:46:33;;;;;;;13.57;6.45;;;;;;;16.45;63.87;100325.75;4442432;32;34111;-62
2022/10/31 09:49:13;;;;;;;11.25;6.03;;;;;;;16.44;63.72;100324.03;4446071;32;34526;-62
2022/10/31 09:51:45;;;;;;;6.05;4.80;;;;;;;16.62;63.03;100316.94;4436841;32;32685;-62
2022/10/31 09:54:48;;;;;;;8.48;5.12;;;;;;;16.64;63.11;100322.22;4442621;32;33750;-62
2022/10/31 09:57:19;;;;;;;20.25;9.52;;;;;;;16.70;62.78;100327.94;4436321;32;35351;-64
2022/10/31 09:59:48;;;;;;;10.05;6.12;;;;;;;16.62;62.84;100318.78;4445074;32;33834;-62
2022/10/31 10:02:40;;;;;;;11.18;5.03;;;;;;;16.18;64.33;100316.44;4428401;32;33025;-62
2022/10/31 10:05:13;;;;;;;12.45;7.53;;;;;;;15.76;65.73;100307.56;4444887;32;33974;-62
2022/10/31 10:07:44;;;;;;;10.60;5.57;;;;;;;16.27;64.23;100310.19;4445175;32;34942;-62
2022/10/31 10:10:17;;;;;;;10.55;7.10;;;;;;;16.49;63.64;100313.66;4449162;32;34735;-62
2022/10/31 10:13:00;;;;;;;12.60;6.45;;;;;;;16.60;63.37;100312.69;4442721;32;32604;-63
2022/10/31 10:15:52;;;;;;;10.45;5.50;;;;;;;16.44;64.18;100310.53;4448543;32;32653;-63
2022/10/31 10:18:42;;;;;;;9.95;6.35;;;;;;;16.52;64.02;100310.69;4442857;32;34293;-63
2022/10/31 10:21:37;;;;;;;8.88;5.32;;;;;;;16.53;63.68;100306.97;4441674;32;33305;-64
2022/10/31 10:24:08;;;;;;;4.90;3.60;;;;;;;16.35;64.22;100314.06;4446906;32;34658;-61
2022/10/31 10:26:49;;;;;;;11.10;5.55;;;;;;;16.49;63.97;100317.19;4442736;32;32845;-63
2022/10/31 10:29:32;;;;;;;10.70;6.53;;;;;;;16.32;64.55;100307.06;4440264;32;33812;-63
2022/10/31 10:32:03;;;;;;;11.27;5.57;;;;;;;16.17;64.83;100305.75;4440753;32;34881;-63
2022/10/31 10:34:34;;;;;;;8.18;4.78;;;;;;;15.76;66.08;100305.72;4439391;32;32957;-64
2022/10/31 10:37:05;;;;;;;9.75;5.15;;;;;;;15.74;65.88;100301.44;4441703;32;34938;-62
2022/10/31 10:39:55;;;;;;;11.10;7.65;;;;;;;15.49;67.19;100305.37;4445815;32;33416;-62
2022/10/31 10:48:14;;;;;;;11.82;7.12;;;;;;;15.72;66.22;100306.13;4437770;32;34027;-62
2022/10/31 10:50:47;;;;;;;12.15;5.90;;;;;;;16.20;65.08;100300.91;4445497;32;34833;-63
2022/10/31 10:53:31;;;;;;;15.05;5.82;;;;;;;16.11;65.52;100298.19;4446983;32;32143;-64
2022/10/31 10:56:18;;;;;;;9.55;6.80;;;;;;;16.44;64.37;100297.87;4441088;32;34073;-63
2022/10/31 10:58:46;;;;;;;15.88;8.55;;;;;;;16.55;64.11;100296.88;4447690;32;33814;-63
2022/10/31 11:01:14;;;;;;;7.97;5.85;;;;;;;16.16;65.54;100302.19;4437963;32;33858;-63
2022/10/31 11:03:47;;;;;;;13.65;8.85;;;;;;;16.40;64.67;100300.97;4447792;32;34667;-63
2022/10/31 11:06:25;;;;;;;13.93;7.55;;;;;;;16.39;64.56;100304.69;4442655;32;33388;-63
2022/10/31 11:08:53;;;;;;;18.10;8.52;;;;;;;16.02;65.56;100292.62;4429296;32;33881;-65
2022/10/31 11:11:27;;;;;;;6.45;4.50;;;;;;;16.29;64.75;100292.00;4438264;32;35254;-63
2022/10/31 11:14:00;;;;;;;14.20;7.10;;;;;;;16.51;64.06;100290.91;4445746;32;32422;-62
2022/10/31 11:16:37;;;;;;;10.80;6.43;;;;;;;16.41;64.49;100291.91;4447585;32;33995;-62
2022/10/31 11:19:16;;;;;;;10.10;4.93;;;;;;;16.10;65.16;100294.63;4444582;32;34091;-63
2022/10/31 11:21:45;;;;;;;13.05;5.75;;;;;;;16.34;64.51;100288.00;4445356;32;34369;-65
2022/10/31 11:24:22;;;;;;;10.63;6.30;;;;;;;16.41;64.20;100286.50;4436393;32;33845;-63
2022/10/31 11:26:51;;;;;;;10.43;6.00;;;;;;;16.54;63.83;100279.81;4429474;32;32978;-62
2022/10/31 11:29:24;;;;;;;10.75;6.30;;;;;;;16.43;64.35;100287.19;4441431;32;33915;-65
2022/10/31 11:31:56;;;;;;;11.68;6.22;;;;;;;16.44;64.39;100284.37;4443948;32;34302;-63
2022/10/31 11:34:36;;;;;;;11.75;5.30;;;;;;;16.65;63.67;100272.56;4436325;32;33631;-62
2022/10/31 11:37:18;;;;;;;8.57;4.93;;;;;;;16.55;63.76;100277.97;4426106;32;34625;-61
2022/10/31 11:39:53;;;;;;;11.68;5.57;;;;;;;16.49;63.87;100279.38;4426416;32;33285;-63
2022/10/31 11:42:23;;;;;;;8.43;5.32;;;;;;;16.44;64.06;100281.66;4441614;32;35318;-62
2022/10/31 11:44:51;;;;;;;7.55;4.78;;;;;;;16.67;63.40;100282.25;4439159;32;33583;-63
2022/10/31 11:47:25;;;;;;;8.23;5.82;;;;;;;16.36;64.38;100278.78;4441748;32;34856;-62
2022/10/31 11:49:53;;;;;;;9.40;5.50;;;;;;;16.62;63.65;100273.72;4430467;32;34080;-63